Time;durP1;ratioP1;P1;durP2;ratioP2;P2;SDS_P1;SDS_P2;PMS_P1;PMS_P2;Temp;Humidity;BMP_temperature;BMP_pressure;BME280_temperature;BME280_humidity;BME280_pressure;Samples;Min_cycle;Max_cycle;Signal;HPM_P1;HPM_P2
2022/12/22 03:28:33;;;;;;;60.17;26.05;;;;;;;7.96;70.89;98740.38;10391713;28;20057;-61
2022/12/22 03:33:34;;;;;;;23.95;16.73;;;;;;;7.94;70.86;98731.84;10387582;28;20037;-61
2022/12/22 03:38:36;;;;;;;24.05;16.45;;;;;;;7.98;71.26;98719.44;10389986;28;20484;-61
2022/12/22 03:49:08;;;;;;;25.30;18.40;;;;;;;8.03;71.42;98714.75;10389677;28;20508;-61
2022/12/22 03:54:13;;;;;;;11.60;8.75;;;;;;;8.14;71.50;98703.66;10388620;28;20207;-62
2022/12/22 03:59:15;;;;;;;16.88;12.75;;;;;;;8.22;71.16;98683.91;10391606;28;20453;-61
2022/12/22 04:04:20;;;;;;;27.13;17.27;;;;;;;8.27;71.16;98678.41;10383038;28;20050;-61
2022/12/22 04:09:23;;;;;;;32.15;19.42;;;;;;;8.22;71.55;98681.31;10374006;28;20050;-62
2022/12/22 04:14:25;;;;;;;8.52;6.20;;;;;;;8.25;72.14;98677.66;10376138;28;20053;-62
2022/12/22 04:19:34;;;;;;;5.03;3.50;;;;;;;8.47;72.43;98670.84;10375500;28;20143;-61
2022/12/22 04:24:35;;;;;;;4.18;2.58;;;;;;;8.68;72.16;98664.09;10378343;28;20064;-62
2022/12/22 04:29:37;;;;;;;5.03;3.75;;;;;;;8.65;72.04;98666.09;10375751;28;20506;-62
2022/12/22 04:34:38;;;;;;;4.57;2.00;;;;;;;8.88;72.31;98651.38;10380063;28;20046;-62
2022/12/22 04:39:40;;;;;;;3.25;2.10;;;;;;;9.05;71.92;98651.84;10382916;28;20049;-62
2022/12/22 04:44:43;;;;;;;3.40;1.80;;;;;;;9.15;72.02;98645.00;10388756;28;20573;-62
2022/12/22 04:49:44;;;;;;;6.47;4.20;;;;;;;9.24;71.37;98643.47;10382619;28;20044;-62
2022/12/22 04:54:46;;;;;;;6.72;2.28;;;;;;;9.22;72.01;98633.13;10387868;28;20050;-62
2022/12/22 04:59:47;;;;;;;6.75;4.57;;;;;;;9.22;71.27;98622.72;10380198;28;20064;-63
2022/12/22 05:04:49;;;;;;;7.15;3.80;;;;;;;9.20;71.50;98622.00;10386749;28;20412;-62
2022/12/22 05:09:51;;;;;;;5.93;3.58;;;;;;;9.11;71.42;98616.63;10378145;28;20064;-62
2022/12/22 05:14:53;;;;;;;3.70;2.20;;;;;;;9.09;71.94;98608.09;10377398;28;20559;-62
2022/12/22 05:19:54;;;;;;;5.55;2.05;;;;;;;9.25;72.00;98606.00;10381182;28;20045;-62
2022/12/22 05:24:56;;;;;;;4.82;1.90;;;;;;;9.32;71.77;98589.75;10384839;28;20045;-62
2022/12/22 05:29:57;;;;;;;4.32;1.70;;;;;;;9.35;72.00;98584.31;10381982;28;20054;-62
2022/12/22 05:35:01;;;;;;;3.03;1.60;;;;;;;9.52;71.81;98596.91;10382553;28;20045;-62
2022/12/22 05:40:05;;;;;;;3.15;1.40;;;;;;;9.59;71.70;98577.22;10384292;28;20640;-62
2022/12/22 05:45:16;;;;;;;4.22;1.80;;;;;;;9.59;71.50;98577.22;10385098;28;20046;-62
2022/12/22 05:50:21;;;;;;;4.45;1.30;;;;;;;9.50;72.36;98557.03;10383164;28;20053;-62
2022/12/22 05:55:22;;;;;;;5.30;3.00;;;;;;;9.44;72.67;98562.72;10377843;28;20045;-62
2022/12/22 06:00:24;;;;;;;5.80;1.67;;;;;;;9.50;72.41;98558.84;10376967;28;20049;-62
2022/12/22 06:05:26;;;;;;;4.38;1.50;;;;;;;9.58;72.46;98561.69;10382975;28;20056;-61
2022/12/22 06:10:27;;;;;;;1.65;1.30;;;;;;;9.59;72.53;98552.91;10378184;28;20053;-62
2022/12/22 06:15:29;;;;;;;2.65;1.00;;;;;;;9.67;72.50;98549.75;10383546;28;20060;-61
2022/12/22 06:20:31;;;;;;;0.95;0.80;;;;;;;9.64;72.60;98543.78;10379315;28;20623;-62
2022/12/22 06:25:33;;;;;;;1.55;1.00;;;;;;;9.75;72.39;98539.53;10378063;28;20068;-62
2022/12/22 06:30:34;;;;;;;1.65;0.93;;;;;;;9.82;72.19;98543.31;10379098;28;20743;-62
2022/12/22 06:35:36;;;;;;;1.77;1.00;;;;;;;9.76;72.34;98547.25;10381154;28;20049;-62
2022/12/22 06:40:38;;;;;;;1.88;0.82;;;;;;;9.81;72.34;98547.69;10378098;28;20603;-62
2022/12/22 06:45:42;;;;;;;2.17;0.63;;;;;;;9.87;72.28;98556.84;10381609;28;20055;-62
2022/12/22 06:50:44;;;;;;;0.95;0.68;;;;;;;9.87;72.53;98552.44;10372922;28;20049;-62
2022/12/22 06:55:45;;;;;;;2.53;0.70;;;;;;;9.89;72.37;98547.13;10383598;28;20068;-62
2022/12/22 07:00:48;;;;;;;1.35;0.68;;;;;;;9.93;72.33;98556.38;10383076;28;20488;-62
2022/12/22 07:05:50;;;;;;;1.60;0.77;;;;;;;10.00;72.10;98557.53;10380066;28;20406;-61
2022/12/22 07:10:57;;;;;;;0.85;0.55;;;;;;;9.98;72.07;98562.03;10381523;28;20509;-63
2022/12/22 07:16:01;;;;;;;4.15;1.08;;;;;;;10.01;72.03;98548.75;10383387;28;20045;-62
2022/12/22 07:21:05;;;;;;;3.65;0.98;;;;;;;10.03;71.95;98554.69;10383151;28;20487;-62
2022/12/22 07:26:08;;;;;;;2.42;1.10;;;;;;;10.07;71.43;98561.31;10381595;28;20050;-62
2022/12/22 07:31:11;;;;;;;3.25;1.05;;;;;;;10.15;71.03;98557.16;10381567;28;20053;-62
2022/12/22 07:36:15;;;;;;;4.60;1.30;;;;;;;10.26;70.63;98561.50;10381318;28;20563;-62
2022/12/22 07:46:39;;;;;;;;;;;;;;;9.89;71.19;98563.59;10383905;28;20053;-62
2022/12/22 07:51:42;;;;;;;4.80;1.20;;;;;;;10.18;70.67;98566.50;10380623;28;19925;-62
2022/12/22 07:56:45;;;;;;;3.45;1.13;;;;;;;10.22;70.36;98573.16;10383256;28;20178;-61
2022/12/22 08:01:47;;;;;;;7.25;1.60;;;;;;;10.28;70.40;98576.13;10381806;28;20509;-62
2022/12/22 08:06:48;;;;;;;3.55;1.00;;;;;;;10.23;70.57;98578.28;10381613;28;20588;-62
2022/12/22 08:11:50;;;;;;;5.10;1.42;;;;;;;10.12;70.80;98583.50;10387926;28;20040;-62
2022/12/22 08:16:52;;;;;;;4.50;1.17;;;;;;;10.11;70.65;98592.31;10372830;28;20049;-62
2022/12/22 08:21:53;;;;;;;3.70;1.13;;;;;;;9.98;71.43;98599.44;10388848;28;20140;-62
2022/12/22 08:27:01;;;;;;;3.55;1.10;;;;;;;10.01;71.68;98596.56;10390173;28;20045;-62
2022/12/22 08:32:03;;;;;;;7.07;1.23;;;;;;;10.06;71.59;98606.66;10382540;28;20049;-62
2022/12/22 08:37:09;;;;;;;3.25;1.10;;;;;;;10.03;71.65;98612.16;10386659;28;20049;-62
2022/12/22 08:42:14;;;;;;;2.67;1.02;;;;;;;10.05;71.73;98621.53;10383266;28;20057;-62
2022/12/22 08:47:16;;;;;;;5.22;1.20;;;;;;;10.14;71.72;98626.03;10385719;28;20587;-63
2022/12/22 08:52:18;;;;;;;2.90;0.90;;;;;;;10.18;71.48;98658.78;10386724;28;20049;-62
2022/12/22 08:57:20;;;;;;;2.00;0.98;;;;;;;10.01;71.88;98661.06;10385777;28;20049;-63
2022/12/22 09:02:21;;;;;;;4.72;1.05;;;;;;;10.04;71.78;98668.66;10386488;28;20049;-63
2022/12/22 09:07:23;;;;;;;3.10;1.50;;;;;;;10.20;71.35;98661.28;10388461;28;20052;-62
2022/12/22 09:12:25;;;;;;;3.58;2.20;;;;;;;10.30;71.21;98668.28;10377808;28;20046;-63
2022/12/22 09:17:27;;;;;;;4.25;1.25;;;;;;;10.24;71.43;98684.44;10378883;28;20053;-62
2022/12/22 09:22:28;;;;;;;4.00;2.00;;;;;;;10.34;70.96;98693.22;10382159;28;20123;-62
2022/12/22 09:27:30;;;;;;;3.35;1.60;;;;;;;10.45;71.00;98708.06;10384620;28;20049;-62
2022/12/22 09:32:32;;;;;;;1.98;0.90;;;;;;;10.55;70.87;98716.84;10383073;28;20131;-63
2022/12/22 09:37:33;;;;;;;3.13;1.00;;;;;;;10.60;70.49;98738.25;10386912;28;20049;-60
2022/12/22 09:42:37;;;;;;;5.43;1.60;;;;;;;10.61;70.54;98755.59;10387184;28;20940;-60
2022/12/22 09:47:39;;;;;;;5.35;2.55;;;;;;;10.72;70.45;98765.19;10380886;28;20049;-60
2022/12/22 09:52:50;;;;;;;2.90;1.20;;;;;;;10.66;69.79;98774.38;10383573;28;20315;-61
2022/12/22 09:57:53;;;;;;;3.92;1.60;;;;;;;10.68;70.08;98784.69;10384531;28;20060;-61
2022/12/22 10:03:12;;;;;;;4.75;2.33;;;;;;;10.64;69.78;98804.19;10382577;28;20045;-60
2022/12/22 10:08:20;;;;;;;2.65;1.40;;;;;;;10.69;69.93;98831.63;10387395;28;20045;-61
2022/12/22 10:13:22;;;;;;;2.08;1.08;;;;;;;10.66;69.83;98833.66;10387149;28;20493;-61
2022/12/22 10:18:25;;;;;;;4.32;1.58;;;;;;;10.68;69.84;98834.38;10386073;28;20481;-61
2022/12/22 10:23:30;;;;;;;2.05;1.20;;;;;;;10.77;69.42;98841.50;10387516;28;20531;-60
2022/12/22 10:28:37;;;;;;;3.05;1.65;;;;;;;10.97;69.09;98836.38;10386166;28;20460;-60
2022/12/22 10:33:39;;;;;;;6.78;4.18;;;;;;;10.94;68.97;98848.88;10387273;28;20046;-61
2022/12/22 10:39:07;;;;;;;10.00;5.70;;;;;;;10.82;69.08;98858.50;10385261;28;20211;-60
2022/12/22 10:44:19;;;;;;;3.47;2.20;;;;;;;10.67;70.04;98862.31;10374623;28;20045;-61
2022/12/22 10:49:34;;;;;;;5.07;3.30;;;;;;;10.68;70.23;98877.06;10378981;28;20060;-61
2022/12/22 10:54:39;;;;;;;8.75;4.95;;;;;;;10.57;70.36;98878.81;10381260;28;20057;-60
2022/12/22 11:00:01;;;;;;;8.38;3.22;;;;;;;10.34;71.00;98884.00;10377816;28;20387;-60
2022/12/22 11:05:10;;;;;;;4.68;3.15;;;;;;;10.43;70.91;98888.53;10378395;28;20041;-60
2022/12/22 11:10:41;;;;;;;3.33;2.20;;;;;;;10.36;71.14;98907.41;10376645;28;20160;-61
2022/12/22 11:15:48;;;;;;;3.50;2.10;;;;;;;10.50;70.94;98912.44;10379257;28;20401;-61
2022/12/22 11:21:07;;;;;;;3.30;2.00;;;;;;;10.70;70.05;98921.38;10371222;28;20053;-60
2022/12/22 11:26:26;;;;;;;4.88;3.72;;;;;;;10.78;69.16;98930.31;10377145;28;20421;-60
2022/12/22 11:31:46;;;;;;;4.93;2.70;;;;;;;10.80;68.32;98948.50;10374787;28;20140;-60
2022/12/22 11:37:18;;;;;;;5.47;3.28;;;;;;;10.86;68.74;98943.66;10376142;28;20046;-60
2022/12/22 11:42:51;;;;;;;6.22;4.80;;;;;;;11.06;67.75;98957.84;10374553;28;20425;-60
2022/12/22 11:48:09;;;;;;;4.78;2.90;;;;;;;11.25;67.77;98956.28;10384234;28;20640;-60
2022/12/22 11:53:27;;;;;;;4.45;3.05;;;;;;;11.38;66.50;98971.06;10379623;28;20670;-60
2022/12/22 11:58:42;;;;;;;3.60;2.60;;;;;;;11.62;66.58;98985.66;10388106;28;20136;-59
2022/12/22 12:04:14;;;;;;;9.98;7.10;;;;;;;11.74;65.79;98989.09;10381586;28;20055;-60
2022/12/22 12:09:16;;;;;;;4.25;2.33;;;;;;;11.40;66.24;98990.09;10384714;28;20041;-60
2022/12/22 12:14:31;;;;;;;3.85;2.97;;;;;;;11.38;65.32;99002.47;10387731;28;20152;-61
2022/12/22 12:19:49;;;;;;;4.63;3.08;;;;;;;11.49;65.37;99010.31;10388273;28;20060;-60
2022/12/22 12:25:01;;;;;;;3.80;2.40;;;;;;;11.52;65.58;99015.31;10384694;28;20072;-60
2022/12/22 12:30:15;;;;;;;4.00;2.80;;;;;;;11.54;64.53;99022.06;10383101;28;20037;-60
2022/12/22 12:35:57;;;;;;;3.70;2.55;;;;;;;11.38;64.80;99026.03;10387297;28;20053;-59
2022/12/22 12:41:11;;;;;;;3.70;2.70;;;;;;;11.15;65.00;99043.50;10380570;28;20064;-59
2022/12/22 12:46:50;;;;;;;4.50;2.63;;;;;;;10.91;65.11;99048.75;10384240;28;20085;-59
2022/12/22 12:51:53;;;;;;;3.67;2.67;;;;;;;10.92;65.63;99053.03;10382136;28;20363;-60
2022/12/22 12:57:10;;;;;;;3.85;2.70;;;;;;;11.11;64.76;99065.63;10386329;28;20041;-59
2022/12/22 13:02:27;;;;;;;5.47;2.78;;;;;;;11.18;63.97;99070.25;10376884;28;20080;-60
2022/12/22 13:08:06;;;;;;;3.85;3.00;;;;;;;11.19;63.52;99064.06;10377835;28;20061;-60
2022/12/22 13:13:33;;;;;;;4.80;3.03;;;;;;;11.24;64.16;99063.72;10369528;28;20060;-59
2022/12/22 13:18:42;;;;;;;6.10;3.83;;;;;;;11.29;64.32;99062.41;10376496;28;20045;-60
2022/12/22 13:23:53;;;;;;;5.50;3.85;;;;;;;11.24;64.56;99079.41;10375715;28;20128;-60
2022/12/22 13:29:23;;;;;;;5.68;4.47;;;;;;;11.01;65.21;99093.38;10376943;28;20523;-60
2022/12/22 13:34:36;;;;;;;6.10;4.60;;;;;;;11.09;65.41;99080.59;10368379;28;20045;-60
2022/12/22 13:40:11;;;;;;;6.55;4.97;;;;;;;10.93;66.39;99085.28;10382812;28;20132;-60
2022/12/22 13:45:18;;;;;;;9.32;5.93;;;;;;;10.70;67.38;99086.97;10385453;28;20045;-60
2022/12/22 13:50:27;;;;;;;7.68;6.18;;;;;;;10.63;67.78;99093.59;10382252;28;20046;-60
2022/12/22 13:55:31;;;;;;;8.38;6.68;;;;;;;10.65;67.77;99080.38;10381918;28;20049;-60
2022/12/22 14:00:33;;;;;;;9.90;7.05;;;;;;;10.81;68.02;99081.78;10376954;28;20061;-61
2022/12/22 14:05:35;;;;;;;8.77;6.70;;;;;;;10.81;67.92;99088.78;10380523;28;20045;-60
2022/12/22 14:10:42;;;;;;;12.10;7.45;;;;;;;10.82;68.20;99093.06;10379275;28;20080;-60
2022/12/22 14:15:44;;;;;;;8.85;5.32;;;;;;;10.80;68.22;99101.03;10385042;28;20053;-60
2022/12/22 14:20:47;;;;;;;6.45;4.53;;;;;;;10.82;68.42;99098.31;10380399;28;20060;-60
2022/12/22 14:25:54;;;;;;;8.75;5.22;;;;;;;10.85;68.31;99101.53;10379392;28;20057;-60
2022/12/22 14:30:58;;;;;;;6.45;4.32;;;;;;;10.83;68.40;99099.97;10381593;28;20052;-60
2022/12/22 14:36:03;;;;;;;6.97;4.95;;;;;;;10.67;68.42;99113.34;10382696;28;20136;-61
2022/12/22 14:41:42;;;;;;;8.10;6.13;;;;;;;10.59;68.59;99110.44;10379875;28;20053;-60
2022/12/22 14:46:47;;;;;;;7.65;5.65;;;;;;;10.49;68.73;99119.91;10380517;28;20150;-60
2022/12/22 14:51:55;;;;;;;3.10;2.20;;;;;;;10.33;68.95;99122.78;10374772;28;20754;-61
2022/12/22 14:57:10;;;;;;;6.63;4.25;;;;;;;10.27;68.97;99122.38;10380621;28;20071;-60
2022/12/22 15:02:25;;;;;;;5.32;3.30;;;;;;;10.10;69.08;99126.19;10379453;28;20088;-60
2022/12/22 15:07:26;;;;;;;4.80;2.38;;;;;;;10.04;69.11;99116.16;10380110;28;20041;-61
2022/12/22 15:12:50;;;;;;;4.55;2.00;;;;;;;10.07;68.88;99120.34;10385870;28;20072;-60
2022/12/22 15:17:52;;;;;;;4.20;1.90;;;;;;;9.97;68.79;99135.00;10384138;28;20493;-60
2022/12/22 15:22:54;;;;;;;3.15;1.70;;;;;;;9.87;68.85;99129.56;10376579;28;20504;-61
2022/12/22 15:27:55;;;;;;;2.03;1.40;;;;;;;9.74;68.92;99133.97;10384125;28;20068;-60
2022/12/22 15:32:57;;;;;;;1.85;1.38;;;;;;;9.80;68.86;99146.63;10377100;28;20891;-60
2022/12/22 15:38:00;;;;;;;1.65;1.17;;;;;;;9.86;68.72;99154.03;10380734;28;20147;-60
2022/12/22 15:43:01;;;;;;;7.47;2.97;;;;;;;9.74;68.36;99151.41;10376700;28;20057;-60
2022/12/22 15:48:06;;;;;;;2.63;1.50;;;;;;;9.67;68.43;99137.94;10382398;28;20054;-60
2022/12/22 15:53:13;;;;;;;5.78;2.53;;;;;;;9.62;68.12;99140.84;10381777;28;20228;-60
2022/12/22 15:58:22;;;;;;;4.10;3.20;;;;;;;9.56;68.10;99130.81;10383350;28;20305;-60
2022/12/22 16:03:24;;;;;;;4.25;2.00;;;;;;;9.47;68.12;99134.06;10381169;28;20132;-60
2022/12/22 16:08:30;;;;;;;2.75;1.83;;;;;;;9.50;68.03;99141.66;10377383;28;20871;-60
2022/12/22 16:13:32;;;;;;;3.67;2.40;;;;;;;9.40;68.58;99134.59;10381779;28;20073;-60
2022/12/22 16:18:34;;;;;;;2.72;1.55;;;;;;;9.39;68.60;99128.53;10383054;28;20053;-60
2022/12/22 16:23:36;;;;;;;2.92;1.30;;;;;;;9.38;68.67;99116.41;10379897;28;20308;-60
2022/12/22 16:28:38;;;;;;;1.63;1.23;;;;;;;9.32;68.69;99114.19;10382385;28;20059;-60
2022/12/22 16:33:39;;;;;;;3.90;1.90;;;;;;;9.37;68.75;99111.28;10386183;28;20445;-60
2022/12/22 16:38:44;;;;;;;2.58;1.50;;;;;;;9.41;68.92;99104.91;10390864;28;20054;-60
2022/12/22 16:43:47;;;;;;;4.43;2.00;;;;;;;9.37;68.88;99103.47;10391427;28;20057;-60
2022/12/22 16:48:59;;;;;;;4.95;1.80;;;;;;;9.25;69.06;99099.91;10381332;28;20050;-60
2022/12/22 16:54:01;;;;;;;4.77;3.40;;;;;;;9.30;68.94;99086.56;10389500;28;20045;-61
2022/12/22 16:59:03;;;;;;;2.72;1.67;;;;;;;9.25;68.94;99081.66;10384930;28;20049;-63
2022/12/22 17:04:08;;;;;;;3.40;1.50;;;;;;;9.31;68.76;99088.22;10382969;28;20059;-63
2022/12/22 17:09:24;;;;;;;4.85;2.13;;;;;;;9.27;68.64;99087.59;10385540;28;20435;-63
2022/12/22 17:14:28;;;;;;;4.07;1.33;;;;;;;9.15;68.85;99075.38;10382997;28;20038;-63
2022/12/22 17:19:29;;;;;;;2.10;1.20;;;;;;;9.15;68.79;99064.09;10384754;28;20057;-63
2022/12/22 17:24:31;;;;;;;2.40;1.40;;;;;;;9.15;68.89;99069.31;10383870;28;20049;-63
2022/12/22 17:29:33;;;;;;;4.90;1.40;;;;;;;9.14;68.80;99059.81;10386068;28;20076;-63
2022/12/22 17:34:35;;;;;;;3.10;1.25;;;;;;;9.11;68.72;99053.06;10383102;28;20049;-61
2022/12/22 17:39:37;;;;;;;6.45;1.52;;;;;;;9.17;68.62;99050.03;10381141;28;20049;-62
2022/12/22 17:44:39;;;;;;;6.97;1.40;;;;;;;9.22;68.51;99049.72;10383506;28;20050;-62
2022/12/22 17:49:42;;;;;;;4.20;1.30;;;;;;;9.23;68.39;99035.72;10385202;28;20078;-63
2022/12/22 17:54:46;;;;;;;4.32;1.50;;;;;;;9.32;68.29;99028.09;10383577;28;20056;-62
2022/12/22 17:59:47;;;;;;;4.95;1.67;;;;;;;9.31;68.27;99015.16;10386173;28;20068;-63
2022/12/22 18:04:50;;;;;;;6.88;1.80;;;;;;;9.29;68.39;99007.44;10387861;28;20372;-62
2022/12/22 18:09:57;;;;;;;6.53;1.75;;;;;;;9.26;68.43;99001.63;10384130;28;20132;-63
2022/12/22 18:14:59;;;;;;;7.28;1.80;;;;;;;9.27;68.35;98998.06;10385661;28;20052;-62
2022/12/22 18:20:01;;;;;;;6.47;2.05;;;;;;;9.29;68.32;98990.94;10384455;28;20050;-62
2022/12/22 18:25:19;;;;;;;7.47;2.53;;;;;;;9.40;68.44;98983.22;10380432;28;21192;-62
2022/12/22 18:30:24;;;;;;;7.75;2.75;;;;;;;9.41;68.24;98982.25;10373712;28;20050;-62
2022/12/22 18:35:26;;;;;;;9.20;2.50;;;;;;;9.43;68.17;98978.63;10378812;28;20056;-62
2022/12/22 18:40:36;;;;;;;10.98;3.13;;;;;;;9.50;68.03;98965.97;10380481;28;20053;-62
2022/12/22 18:45:39;;;;;;;9.48;2.88;;;;;;;9.54;68.03;98955.19;10382262;28;20052;-62
2022/12/22 18:50:40;;;;;;;9.45;3.08;;;;;;;9.64;67.96;98943.19;10383691;28;20046;-63
2022/12/22 18:55:44;;;;;;;16.05;3.20;;;;;;;9.71;68.06;98948.00;10379947;28;20048;-62
2022/12/22 19:00:47;;;;;;;12.45;3.15;;;;;;;9.63;67.96;98938.88;10382981;28;20065;-63
2022/12/22 19:05:48;;;;;;;15.93;5.40;;;;;;;9.43;68.45;98934.25;10380165;28;20453;-62
2022/12/22 19:10:56;;;;;;;13.15;7.00;;;;;;;9.29;68.85;98939.63;10378127;28;20053;-63
2022/12/22 19:15:59;;;;;;;36.38;22.15;;;;;;;9.14;69.16;98939.81;10374698;28;20041;-63
2022/12/22 19:21:00;;;;;;;26.77;19.10;;;;;;;8.98;69.53;98927.03;10380101;28;20062;-63
2022/12/22 19:26:03;;;;;;;14.93;9.82;;;;;;;8.85;69.87;98923.59;10378223;28;20409;-62
2022/12/22 19:31:20;;;;;;;21.27;11.85;;;;;;;8.86;69.94;98917.44;10378943;28;20497;-62
2022/12/22 19:36:25;;;;;;;13.63;8.85;;;;;;;8.85;69.90;98902.75;10379194;28;20046;-62
2022/12/22 19:41:42;;;;;;;19.95;13.75;;;;;;;8.94;69.86;98904.72;10382058;28;20057;-62
2022/12/22 19:46:44;;;;;;;23.13;13.70;;;;;;;8.85;69.81;98897.53;10377490;28;20072;-63
2022/12/22 19:51:45;;;;;;;20.17;14.27;;;;;;;8.81;69.87;98878.63;10376231;28;20713;-63
2022/12/22 19:56:54;;;;;;;26.50;19.60;;;;;;;8.68;70.13;98882.22;10377231;28;20037;-62
2022/12/22 20:01:56;;;;;;;21.45;12.27;;;;;;;8.66;70.17;98877.09;10378763;28;20140;-63
2022/12/22 20:06:58;;;;;;;30.23;19.23;;;;;;;8.66;70.38;98873.66;10385649;28;20099;-63
2022/12/22 20:12:00;;;;;;;24.40;14.13;;;;;;;8.67;70.43;98873.53;10389440;28;20057;-63
2022/12/22 20:17:01;;;;;;;23.00;10.45;;;;;;;8.81;70.33;98875.22;10390066;28;20175;-63
2022/12/22 20:22:03;;;;;;;30.08;10.02;;;;;;;8.88;70.45;98860.81;10389315;28;20077;-63
2022/12/22 20:27:20;;;;;;;45.45;15.15;;;;;;;8.95;70.59;98849.03;10388750;28;20045;-63
2022/12/22 20:32:21;;;;;;;33.75;9.38;;;;;;;9.01;70.31;98848.59;10381044;28;20045;-62
2022/12/22 20:37:29;;;;;;;25.55;6.57;;;;;;;9.02;70.59;98842.41;10390099;28;20065;-62
2022/12/22 20:42:30;;;;;;;25.75;6.65;;;;;;;9.03;70.79;98843.25;10384527;28;20237;-62
2022/12/22 20:47:33;;;;;;;25.08;6.13;;;;;;;9.09;71.00;98833.22;10387255;28;20044;-63
2022/12/22 20:52:34;;;;;;;28.85;6.18;;;;;;;9.19;70.99;98839.47;10389418;28;20165;-61
2022/12/22 20:57:36;;;;;;;26.83;5.70;;;;;;;9.24;71.03;98837.34;10387731;28;20064;-62
2022/12/22 21:02:38;;;;;;;27.48;4.90;;;;;;;9.18;71.09;98840.38;10386988;28;20405;-62
2022/12/22 21:07:44;;;;;;;21.13;5.13;;;;;;;9.13;71.49;98834.69;10386598;28;20045;-62
2022/12/22 21:12:47;;;;;;;26.77;7.40;;;;;;;9.15;71.54;98829.34;10384276;28;20060;-62
2022/12/22 21:17:51;;;;;;;20.58;5.00;;;;;;;9.19;71.31;98818.59;10385969;28;20049;-62
2022/12/22 21:22:59;;;;;;;28.27;6.97;;;;;;;9.19;71.58;98812.53;10387660;28;20056;-61
2022/12/22 21:28:01;;;;;;;24.10;4.82;;;;;;;9.26;71.43;98811.97;10387790;28;20069;-61
2022/12/22 21:33:03;;;;;;;24.73;4.72;;;;;;;9.22;71.51;98820.97;10369853;28;20393;-61
2022/12/22 21:38:04;;;;;;;21.77;5.30;;;;;;;9.21;71.80;98819.31;10387103;28;20544;-62
2022/12/22 21:43:10;;;;;;;23.02;6.32;;;;;;;9.24;71.64;98823.47;10384277;28;20405;-60
2022/12/22 21:48:17;;;;;;;26.58;7.03;;;;;;;9.23;71.66;98813.97;10385698;28;20057;-61
2022/12/22 21:53:19;;;;;;;31.98;6.43;;;;;;;9.31;71.52;98806.44;10386159;28;20045;-61
2022/12/22 21:58:23;;;;;;;24.70;5.88;;;;;;;9.35;71.33;98805.25;10385347;28;20427;-61
2022/12/22 22:03:25;;;;;;;23.27;6.05;;;;;;;9.33;71.43;98804.53;10384963;28;20068;-61
2022/12/22 22:08:27;;;;;;;24.05;6.10;;;;;;;9.33;71.41;98787.13;10384482;28;20081;-61
2022/12/22 22:13:29;;;;;;;24.00;5.57;;;;;;;9.37;71.41;98785.13;10385515;28;20049;-62
2022/12/22 22:18:31;;;;;;;21.10;4.57;;;;;;;9.36;71.29;98778.25;10385590;28;20520;-61
2022/12/22 22:23:32;;;;;;;23.08;5.30;;;;;;;9.34;71.42;98774.91;10386147;28;20049;-62
2022/12/22 22:28:34;;;;;;;13.82;4.15;;;;;;;9.36;71.44;98768.63;10385594;28;20052;-62
2022/12/22 22:33:36;;;;;;;16.80;4.28;;;;;;;9.33;71.23;98755.81;10385835;28;20063;-62
2022/12/22 22:38:38;;;;;;;12.07;3.30;;;;;;;9.23;71.48;98772.25;10383444;28;20382;-62
2022/12/22 22:43:40;;;;;;;11.77;3.00;;;;;;;9.22;71.69;98760.97;10383469;28;20049;-62
2022/12/22 22:48:41;;;;;;;9.60;3.08;;;;;;;9.15;71.83;98769.34;10385503;28;20041;-62
2022/12/22 22:53:43;;;;;;;11.13;3.60;;;;;;;9.08;71.99;98773.34;10386100;28;20060;-62
2022/12/22 22:58:45;;;;;;;9.88;3.05;;;;;;;9.01;71.97;98778.19;10384053;28;20528;-62
2022/12/22 23:03:46;;;;;;;10.93;2.95;;;;;;;8.98;71.92;98772.31;10383756;28;20083;-62
2022/12/22 23:08:48;;;;;;;10.18;3.80;;;;;;;9.00;72.35;98771.28;10384013;28;20046;-62
2022/12/22 23:13:53;;;;;;;15.13;3.00;;;;;;;9.02;72.40;98758.97;10382541;28;20072;-62
2022/12/22 23:18:55;;;;;;;19.42;4.82;;;;;;;9.00;72.35;98765.22;10381542;28;20045;-62
2022/12/22 23:23:57;;;;;;;16.02;4.57;;;;;;;8.94;72.40;98753.47;10383842;28;20509;-62
2022/12/22 23:28:58;;;;;;;19.02;8.60;;;;;;;8.88;72.73;98745.25;10383365;28;20069;-62
2022/12/22 23:34:04;;;;;;;12.52;5.07;;;;;;;8.92;72.52;98750.13;10376886;28;20140;-62
2022/12/22 23:39:06;;;;;;;11.95;2.90;;;;;;;8.80;72.68;98753.63;10381654;28;20045;-62
2022/12/22 23:44:08;;;;;;;9.23;2.40;;;;;;;8.73;73.04;98741.94;10382131;28;20486;-62
2022/12/22 23:49:12;;;;;;;7.90;2.78;;;;;;;8.68;73.16;98739.69;10390739;28;20080;-62
2022/12/22 23:54:14;;;;;;;10.73;2.70;;;;;;;8.72;72.91;98740.31;10385436;28;20082;-62
2022/12/22 23:59:16;;;;;;;16.02;6.05;;;;;;;8.68;73.10;98737.09;10388775;28;20437;-62
